createdAt,value
2022-09-06T00:01:09.404Z,100643.27
2022-09-06T00:03:40.964Z,100640.23
2022-09-06T00:07:17.808Z,100637.98
2022-09-06T00:09:46.690Z,100637.42
2022-09-06T00:12:22.012Z,100640.38
2022-09-06T00:14:50.864Z,100637.91
2022-09-06T00:17:20.422Z,100635.17
2022-09-06T00:20:13.817Z,100629.80
2022-09-06T00:22:42.900Z,100630.27
2022-09-06T00:25:11.390Z,100634.10
2022-09-06T00:27:37.832Z,100634.27
2022-09-06T00:30:06.773Z,100635.38
2022-09-06T00:32:40.706Z,100636.64
2022-09-06T00:35:10.153Z,100640.15
2022-09-06T00:37:39.007Z,100639.77
2022-09-06T00:40:07.037Z,100639.58
2022-09-06T00:42:37.612Z,100640.77
2022-09-06T00:45:06.929Z,100641.25
2022-09-06T00:47:35.554Z,100641.41
2022-09-06T00:50:02.904Z,100641.96
2022-09-06T00:52:32.399Z,100642.34
2022-09-06T00:55:00.506Z,100639.93
2022-09-06T00:57:34.565Z,100638.02
2022-09-06T01:00:01.809Z,100637.54
2022-09-06T01:02:28.494Z,100641.29
2022-09-06T01:04:55.529Z,100639.20
2022-09-06T01:07:41.044Z,100639.69
2022-09-06T01:10:17.960Z,100640.96
2022-09-06T01:12:51.901Z,100642.80
2022-09-06T01:15:26.043Z,100646.06
2022-09-06T01:18:05.270Z,100647.82
2022-09-06T01:20:38.591Z,100653.64
2022-09-06T01:23:25.131Z,100653.64
2022-09-06T01:25:51.647Z,100657.15
2022-09-06T01:28:27.512Z,100657.46
2022-09-06T01:31:02.595Z,100655.79
2022-09-06T01:33:41.718Z,100654.73
2022-09-06T01:36:13.682Z,100656.19
2022-09-06T01:38:40.275Z,100653.88
2022-09-06T01:41:06.853Z,100655.63
2022-09-06T01:43:36.361Z,100659.05
2022-09-06T01:46:21.727Z,100658.41
2022-09-06T01:48:49.584Z,100660.45
2022-09-06T01:51:20.553Z,100662.20
2022-09-06T01:53:56.260Z,100654.73
2022-09-06T01:56:22.820Z,100646.61
2022-09-06T01:58:56.192Z,100647.18
2022-09-06T02:01:44.829Z,100647.98
2022-09-06T02:04:11.366Z,100651.17
2022-09-06T02:06:50.355Z,100655.73
2022-09-06T02:09:19.018Z,100652.05
2022-09-06T02:11:48.616Z,100650.38
2022-09-06T02:14:28.182Z,100651.69
2022-09-06T02:16:55.671Z,100651.15
2022-09-06T02:19:35.058Z,100653.54
2022-09-06T02:22:05.204Z,100651.39
2022-09-06T02:24:36.650Z,100648.60
2022-09-06T02:27:03.371Z,100649.42
2022-09-06T02:29:33.032Z,100653.49
2022-09-06T02:32:03.353Z,100654.13
2022-09-06T02:34:30.362Z,100654.63
2022-09-06T02:36:57.553Z,100652.81
2022-09-06T02:39:25.813Z,100651.80
2022-09-06T02:41:52.598Z,100652.98
2022-09-06T02:44:19.205Z,100654.38
2022-09-06T02:46:46.135Z,100659.27
2022-09-06T02:49:13.029Z,100662.25
2022-09-06T02:51:39.677Z,100661.17
2022-09-06T02:54:06.835Z,100663.58
2022-09-06T02:56:37.014Z,100667.56
2022-09-06T02:59:08.809Z,100670.98
2022-09-06T03:01:35.312Z,100672.01
2022-09-06T03:04:02.295Z,100677.60
2022-09-06T03:06:29.117Z,100684.71
2022-09-06T03:08:55.789Z,100685.58
2022-09-06T03:11:22.385Z,100687.63
2022-09-06T03:13:50.518Z,100690.15
2022-09-06T03:16:17.093Z,100691.63
2022-09-06T03:18:43.627Z,100697.13
2022-09-06T03:21:10.569Z,100693.85
2022-09-06T03:23:38.906Z,100690.59
2022-09-06T03:26:05.981Z,100685.01
2022-09-06T03:31:26.351Z,100676.45
2022-09-06T03:33:53.237Z,100675.08
2022-09-06T03:36:19.805Z,100675.04
2022-09-06T03:38:46.315Z,100669.20
2022-09-06T03:41:12.953Z,100666.00
2022-09-06T03:43:39.626Z,100660.48
2022-09-06T03:46:06.285Z,100657.58
2022-09-06T03:48:32.775Z,100657.27
2022-09-06T03:51:01.974Z,100655.34
2022-09-06T03:53:28.850Z,100649.36
2022-09-06T03:55:57.584Z,100647.60
2022-09-06T03:58:24.667Z,100645.61
2022-09-06T04:00:59.333Z,100640.27
2022-09-06T04:03:26.171Z,100638.44
2022-09-06T04:05:54.283Z,100636.20
2022-09-06T04:08:24.973Z,100631.23
2022-09-06T04:10:55.288Z,100631.59
2022-09-06T04:13:22.757Z,100631.89
2022-09-06T04:15:49.986Z,100627.74
2022-09-06T04:18:20.158Z,100632.42
2022-09-06T04:20:50.702Z,100635.45
2022-09-06T04:23:17.875Z,100636.65
2022-09-06T04:25:48.691Z,100636.77
2022-09-06T04:28:17.816Z,100634.52
2022-09-06T04:30:59.756Z,100630.20
2022-09-06T04:33:42.980Z,100628.92
2022-09-06T04:36:10.822Z,100632.52
2022-09-06T04:38:39.230Z,100630.77
2022-09-06T04:41:06.952Z,100633.16
2022-09-06T04:43:33.867Z,100633.62
2022-09-06T04:46:06.166Z,100634.35
2022-09-06T04:48:32.645Z,100635.31
2022-09-06T04:50:59.344Z,100635.78
2022-09-06T04:53:25.943Z,100633.98
2022-09-06T04:55:52.537Z,100636.66
2022-09-06T04:58:19.085Z,100636.14
2022-09-06T05:00:45.630Z,100635.36
2022-09-06T05:03:12.342Z,100636.33
2022-09-06T05:05:38.997Z,100637.45
2022-09-06T05:08:05.979Z,100635.76
2022-09-06T05:10:32.526Z,100634.98
2022-09-06T05:12:59.119Z,100636.37
2022-09-06T05:15:28.220Z,100639.80
2022-09-06T05:18:02.141Z,100635.23
2022-09-06T05:20:28.625Z,100636.13
2022-09-06T05:22:55.196Z,100636.39
2022-09-06T05:25:37.231Z,100634.63
2022-09-06T05:28:31.058Z,100635.60
2022-09-06T05:31:23.096Z,100632.08
2022-09-06T05:33:51.031Z,100633.66
2022-09-06T05:36:17.531Z,100636.24
2022-09-06T05:38:43.999Z,100634.42
2022-09-06T05:41:10.494Z,100634.30
2022-09-06T05:43:39.660Z,100633.61
2022-09-06T05:46:06.422Z,100636.52
2022-09-06T05:48:37.223Z,100641.30
2022-09-06T05:51:05.155Z,100645.52
2022-09-06T05:53:36.135Z,100643.04
2022-09-06T05:56:03.898Z,100645.48
2022-09-06T05:58:30.990Z,100647.30
2022-09-06T06:01:19.182Z,100648.16
2022-09-06T06:03:58.340Z,100648.77
2022-09-06T06:06:26.252Z,100649.54
2022-09-06T06:08:52.925Z,100649.13
2022-09-06T06:11:23.555Z,100648.86
2022-09-06T06:13:51.803Z,100651.97
2022-09-06T06:16:19.687Z,100654.27
2022-09-06T06:18:51.305Z,100656.48
2022-09-06T06:21:22.072Z,100652.70
2022-09-06T06:23:50.068Z,100655.98
2022-09-06T06:26:18.297Z,100663.04
2022-09-06T06:28:45.974Z,100664.64
2022-09-06T06:31:12.762Z,100662.93
2022-09-06T06:33:43.746Z,100660.10
2022-09-06T06:36:13.221Z,100663.08
2022-09-06T06:38:41.088Z,100669.34
2022-09-06T06:41:08.592Z,100670.15
2022-09-06T06:43:38.239Z,100669.77
2022-09-06T06:46:05.841Z,100666.70
2022-09-06T06:48:32.422Z,100663.76
2022-09-06T06:50:59.086Z,100664.31
2022-09-06T06:53:26.005Z,100664.55
2022-09-06T06:55:52.581Z,100665.80
2022-09-06T06:58:19.194Z,100671.10
2022-09-06T07:00:46.103Z,100676.81
2022-09-06T07:03:13.074Z,100678.98
2022-09-06T07:08:29.426Z,100681.08
2022-09-06T07:10:56.302Z,100681.65
2022-09-06T07:13:24.613Z,100681.45
2022-09-06T07:15:51.413Z,100680.11
2022-09-06T07:18:18.049Z,100681.84
2022-09-06T07:26:24.776Z,100671.13
2022-09-06T07:28:54.630Z,100678.27
2022-09-06T07:34:08.182Z,100677.35
2022-09-06T07:36:34.936Z,100680.86
2022-09-06T07:39:01.690Z,100682.01
2022-09-06T07:41:30.504Z,100676.85
2022-09-06T07:43:57.741Z,100678.84
2022-09-06T07:46:24.947Z,100681.27
2022-09-06T07:48:51.649Z,100685.78
2022-09-06T07:51:19.780Z,100682.80
2022-09-06T07:53:50.538Z,100685.45
2022-09-06T07:56:18.462Z,100687.80
2022-09-06T07:58:47.060Z,100692.81
2022-09-06T08:01:30.663Z,100691.81
2022-09-06T08:04:11.576Z,100688.16
2022-09-06T08:09:28.724Z,100686.16
2022-09-06T08:11:59.540Z,100687.70
2022-09-06T08:14:33.902Z,100685.11
2022-09-06T08:17:25.612Z,100680.05
2022-09-06T08:23:16.247Z,100676.63
2022-09-06T08:26:08.772Z,100676.15
2022-09-06T08:29:20.274Z,100671.24
2022-09-06T08:32:08.721Z,100667.91
2022-09-06T08:35:05.460Z,100663.12
2022-09-06T08:37:47.926Z,100656.74
2022-09-06T08:40:20.949Z,100659.56
2022-09-06T08:42:48.194Z,100658.11
2022-09-06T08:45:18.589Z,100658.55
2022-09-06T08:47:45.412Z,100661.38
2022-09-06T08:50:14.646Z,100658.96
2022-09-06T08:53:06.121Z,100652.54
2022-09-06T08:55:42.645Z,100652.56
2022-09-06T08:58:18.642Z,100656.16
2022-09-06T09:01:13.486Z,100660.33
2022-09-06T09:03:42.585Z,100654.02
2022-09-06T09:06:09.995Z,100654.30
2022-09-06T09:08:36.634Z,100653.63
2022-09-06T09:11:05.522Z,100649.25
2022-09-06T09:13:40.746Z,100647.86
2022-09-06T09:16:08.273Z,100644.64
2022-09-06T09:18:39.538Z,100642.71
2022-09-06T09:21:06.140Z,100641.55
2022-09-06T09:23:32.804Z,100645.27
2022-09-06T09:26:05.510Z,100635.98
2022-09-06T09:28:32.256Z,100633.30
2022-09-06T09:30:58.782Z,100635.69
2022-09-06T09:33:40.581Z,100634.28
2022-09-06T09:36:10.543Z,100630.11
2022-09-06T09:38:59.755Z,100633.27
2022-09-06T09:41:28.553Z,100637.96
2022-09-06T09:44:02.286Z,100632.00
2022-09-06T09:46:35.769Z,100630.64
2022-09-06T09:49:28.721Z,100627.29
2022-09-06T09:52:11.943Z,100627.43
2022-09-06T09:54:43.955Z,100622.83
2022-09-06T09:57:13.290Z,100618.63
2022-09-06T09:59:42.659Z,100615.48
2022-09-06T10:02:27.434Z,100613.81
2022-09-06T10:05:08.847Z,100612.36
2022-09-06T10:07:41.778Z,100613.38
2022-09-06T10:10:13.731Z,100603.13
2022-09-06T10:12:41.512Z,100600.46
2022-09-06T10:15:09.362Z,100603.69
2022-09-06T10:17:56.081Z,100601.35
2022-09-06T10:20:29.151Z,100602.41
2022-09-06T10:23:01.190Z,100598.10
2022-09-06T10:25:33.927Z,100594.69
2022-09-06T10:28:26.840Z,100592.15
2022-09-06T10:31:02.144Z,100592.95
2022-09-06T10:33:28.896Z,100592.92
2022-09-06T10:35:59.365Z,100591.65
2022-09-06T10:38:25.817Z,100592.73
2022-09-06T10:41:06.572Z,100587.34
2022-09-06T10:43:40.207Z,100583.02
2022-09-06T10:46:12.708Z,100582.21
2022-09-06T10:48:40.873Z,100581.86
2022-09-06T10:51:25.192Z,100580.64
2022-09-06T10:54:05.335Z,100576.21
2022-09-06T10:56:39.453Z,100576.16
2022-09-06T11:02:10.517Z,100574.30
2022-09-06T11:10:44.803Z,100575.33
2022-09-06T11:13:16.264Z,100572.14
2022-09-06T11:15:45.372Z,100574.51
2022-09-06T11:18:18.488Z,100570.49
2022-09-06T11:20:49.141Z,100566.36
2022-09-06T11:23:34.530Z,100566.30
2022-09-06T11:26:04.048Z,100561.53
2022-09-06T11:28:34.947Z,100557.02
2022-09-06T11:31:03.091Z,100556.36
2022-09-06T11:33:35.721Z,100555.16
2022-09-06T11:36:20.969Z,100547.64
2022-09-06T11:38:58.110Z,100542.88
2022-09-06T11:41:32.612Z,100539.70
2022-09-06T11:44:01.622Z,100532.77
2022-09-06T11:46:35.815Z,100531.17
2022-09-06T11:49:02.318Z,100528.08
2022-09-06T11:51:34.859Z,100524.27
2022-09-06T11:54:23.718Z,100525.38
2022-09-06T11:57:22.831Z,100521.27
2022-09-06T11:59:55.022Z,100520.39
2022-09-06T12:02:30.830Z,100511.80
2022-09-06T12:05:01.102Z,100508.23
2022-09-06T12:07:28.471Z,100501.54
2022-09-06T12:09:55.041Z,100502.56
2022-09-06T12:12:40.295Z,100500.89
2022-09-06T12:15:25.493Z,100494.89
2022-09-06T12:17:52.105Z,100498.77
2022-09-06T12:20:37.377Z,100492.44
2022-09-06T12:23:04.068Z,100492.10
2022-09-06T12:25:33.592Z,100485.95
2022-09-06T12:28:01.724Z,100477.98
2022-09-06T12:30:41.724Z,100475.93
2022-09-06T12:33:14.316Z,100470.56
2022-09-06T12:35:56.741Z,100469.77
2022-09-06T12:38:24.679Z,100467.25
2022-09-06T12:40:55.880Z,100465.09
2022-09-06T12:43:22.456Z,100466.23
2022-09-06T12:45:50.882Z,100462.67
2022-09-06T12:48:28.921Z,100460.17
2022-09-06T12:52:05.105Z,100457.80
2022-09-06T12:54:16.138Z,100452.31
2022-09-06T12:56:42.627Z,100451.52
2022-09-06T12:59:10.038Z,100448.67
2022-09-06T13:01:37.134Z,100450.30
2022-09-06T13:04:22.373Z,100448.70
2022-09-06T13:06:49.085Z,100446.88
2022-09-06T13:09:18.226Z,100445.02
2022-09-06T13:11:47.880Z,100446.80
2022-09-06T13:14:20.182Z,100449.64
2022-09-06T13:16:49.040Z,100449.95
2022-09-06T13:19:29.226Z,100448.70
2022-09-06T13:21:57.014Z,100451.35
2022-09-06T13:24:36.081Z,100456.64
2022-09-06T13:27:21.570Z,100447.23
2022-09-06T13:29:55.506Z,100442.95
2022-09-06T13:32:22.041Z,100442.30
2022-09-06T13:34:51.700Z,100439.44
2022-09-06T13:37:19.985Z,100434.58
2022-09-06T13:39:46.680Z,100429.59
2022-09-06T13:42:30.964Z,100431.00
2022-09-06T13:45:39.955Z,100430.92
2022-09-06T13:48:26.300Z,100433.09
2022-09-06T13:50:53.118Z,100436.55
2022-09-06T13:53:19.974Z,100446.10
2022-09-06T13:55:46.645Z,100442.45
2022-09-06T13:58:13.244Z,100439.92
2022-09-06T14:00:40.685Z,100438.16
2022-09-06T14:03:08.385Z,100437.35
2022-09-06T14:05:38.391Z,100435.11
2022-09-06T14:08:04.857Z,100428.48
2022-09-06T14:10:31.699Z,100430.79
2022-09-06T14:12:58.233Z,100427.20
2022-09-06T14:15:25.141Z,100424.42
2022-09-06T14:17:51.717Z,100425.58
2022-09-06T14:20:18.203Z,100421.77
2022-09-06T14:22:44.751Z,100420.29
2022-09-06T14:25:11.356Z,100425.33
2022-09-06T14:27:37.832Z,100426.55
2022-09-06T14:30:04.747Z,100418.66
2022-09-06T14:32:31.248Z,100416.41
2022-09-06T14:34:57.830Z,100413.98
2022-09-06T14:37:24.273Z,100415.34
2022-09-06T14:39:50.950Z,100405.47
2022-09-06T14:42:17.560Z,100399.58
2022-09-06T14:44:44.156Z,100400.52
2022-09-06T14:47:11.735Z,100399.67
2022-09-06T14:49:38.573Z,100400.20
2022-09-06T14:52:05.220Z,100399.30
2022-09-06T14:54:31.723Z,100394.16
2022-09-06T14:56:58.288Z,100399.65
2022-09-06T14:59:25.147Z,100399.23
2022-09-06T15:01:51.705Z,100396.08
2022-09-06T15:04:18.423Z,100397.48
2022-09-06T15:06:46.594Z,100391.48
2022-09-06T15:09:14.000Z,100394.57
2022-09-06T15:11:44.895Z,100394.21
2022-09-06T15:14:16.198Z,100393.93
2022-09-06T15:16:43.594Z,100390.98
2022-09-06T15:19:10.656Z,100391.81
2022-09-06T15:21:37.277Z,100389.95
2022-09-06T15:24:09.633Z,100388.52
2022-09-06T15:26:38.752Z,100383.70
2022-09-06T15:29:05.291Z,100385.38
2022-09-06T15:31:33.501Z,100385.83
2022-09-06T15:34:01.041Z,100380.99
2022-09-06T15:36:29.409Z,100381.53
2022-09-06T15:38:58.980Z,100379.59
2022-09-06T15:41:26.466Z,100381.42
2022-09-06T15:43:54.746Z,100384.05
2022-09-06T15:46:39.721Z,100384.20
2022-09-06T15:49:07.024Z,100384.76
2022-09-06T15:51:34.766Z,100382.14
2022-09-06T15:54:01.172Z,100384.39
2022-09-06T15:56:27.824Z,100384.22
2022-09-06T15:58:54.505Z,100381.55
2022-09-06T16:01:25.019Z,100382.64
2022-09-06T16:03:57.913Z,100380.45
2022-09-06T16:06:26.200Z,100377.16
2022-09-06T16:09:01.470Z,100373.40
2022-09-06T16:11:28.652Z,100372.17
2022-09-06T16:13:55.575Z,100374.04
2022-09-06T16:16:22.130Z,100376.21
2022-09-06T16:18:48.681Z,100375.64
2022-09-06T16:21:22.675Z,100370.69
2022-09-06T16:23:59.437Z,100368.93
2022-09-06T16:26:28.168Z,100365.92
2022-09-06T16:28:55.398Z,100364.42
2022-09-06T16:31:25.361Z,100364.59
2022-09-06T16:34:00.467Z,100359.48
2022-09-06T16:36:30.366Z,100359.79
2022-09-06T16:38:57.057Z,100358.66
2022-09-06T16:41:25.239Z,100355.21
2022-09-06T16:43:52.442Z,100351.64
2022-09-06T16:46:20.021Z,100352.00
2022-09-06T16:48:53.426Z,100349.41
2022-09-06T16:51:21.492Z,100352.64
2022-09-06T16:53:50.482Z,100354.92
2022-09-06T16:56:18.128Z,100358.25
2022-09-06T16:58:48.660Z,100360.52
2022-09-06T17:01:15.848Z,100361.27
2022-09-06T17:03:42.551Z,100360.89
2022-09-06T17:06:09.599Z,100357.11
2022-09-06T17:08:36.122Z,100354.31
2022-09-06T17:11:02.624Z,100357.47
2022-09-06T17:13:30.102Z,100355.73
2022-09-06T17:16:26.651Z,100353.91
2022-09-06T17:18:53.539Z,100359.88
2022-09-06T17:21:20.824Z,100360.13
2022-09-06T17:23:49.241Z,100366.38
2022-09-06T17:26:20.574Z,100368.70
2022-09-06T17:28:47.933Z,100370.86
2022-09-06T17:31:15.072Z,100373.78
2022-09-06T17:33:44.073Z,100373.33
2022-09-06T17:36:15.410Z,100374.41
2022-09-06T17:38:42.772Z,100374.58
2022-09-06T17:41:36.441Z,100375.45
2022-09-06T17:44:04.655Z,100378.04
2022-09-06T17:46:31.550Z,100373.89
2022-09-06T17:48:58.377Z,100373.77
2022-09-06T17:51:25.459Z,100375.36
2022-09-06T17:53:52.431Z,100379.89
2022-09-06T17:56:19.841Z,100384.16
2022-09-06T17:58:54.651Z,100387.55
2022-09-06T18:01:22.765Z,100388.34
2022-09-06T18:03:49.568Z,100391.31
2022-09-06T18:06:23.557Z,100394.29
2022-09-06T18:08:56.098Z,100392.63
2022-09-06T18:11:24.137Z,100393.97
2022-09-06T18:13:57.485Z,100392.50
2022-09-06T18:16:24.779Z,100395.51
2022-09-06T18:18:55.796Z,100394.02
2022-09-06T18:21:23.667Z,100396.73
2022-09-06T18:23:54.540Z,100401.45
2022-09-06T18:26:21.322Z,100403.80
2022-09-06T18:28:48.093Z,100406.38
2022-09-06T18:31:18.577Z,100408.11
2022-09-06T18:33:45.658Z,100406.69
2022-09-06T18:36:14.912Z,100406.91
2022-09-06T18:38:47.523Z,100408.20
2022-09-06T18:41:34.949Z,100408.77
2022-09-06T18:44:02.635Z,100406.64
2022-09-06T18:46:30.174Z,100405.13
2022-09-06T18:48:56.801Z,100404.16
2022-09-06T18:51:25.776Z,100405.11
2022-09-06T18:53:52.514Z,100404.63
2022-09-06T18:56:19.725Z,100406.48
2022-09-06T18:58:48.822Z,100401.53
2022-09-06T19:01:48.249Z,100401.91
2022-09-06T19:04:15.199Z,100401.11
2022-09-06T19:06:44.658Z,100404.77
2022-09-06T19:09:36.981Z,100403.36
2022-09-06T19:12:05.078Z,100404.09
2022-09-06T19:14:35.014Z,100403.19
2022-09-06T19:17:03.664Z,100399.05
2022-09-06T19:19:52.310Z,100399.48
2022-09-06T19:22:23.863Z,100394.57
2022-09-06T19:24:53.853Z,100389.50
2022-09-06T19:27:25.550Z,100388.46
2022-09-06T19:29:58.915Z,100383.25
2022-09-06T19:32:25.791Z,100380.11
2022-09-06T19:34:55.838Z,100379.16
2022-09-06T19:37:30.815Z,100375.23
2022-09-06T19:40:09.655Z,100372.84
2022-09-06T19:42:36.259Z,100369.27
2022-09-06T19:45:06.114Z,100367.47
2022-09-06T19:47:32.569Z,100364.57
2022-09-06T19:49:59.049Z,100371.46
2022-09-06T19:52:25.588Z,100371.94
2022-09-06T19:54:54.536Z,100376.02
2022-09-06T19:57:21.111Z,100375.23
2022-09-06T19:59:48.474Z,100372.79
2022-09-06T20:02:15.226Z,100373.72
2022-09-06T20:04:41.782Z,100372.39
2022-09-06T20:07:08.216Z,100363.70
2022-09-06T20:09:34.835Z,100363.98
2022-09-06T20:12:02.236Z,100363.54
2022-09-06T20:14:28.965Z,100359.42
2022-09-06T20:17:00.305Z,100357.95
2022-09-06T20:19:37.988Z,100362.88
2022-09-06T20:22:07.252Z,100360.60
2022-09-06T20:24:33.698Z,100360.79
2022-09-06T20:27:07.243Z,100360.19
2022-09-06T20:29:37.472Z,100362.00
2022-09-06T20:32:04.426Z,100359.23
2022-09-06T20:34:31.321Z,100360.02
2022-09-06T20:36:58.272Z,100362.94
2022-09-06T20:39:31.893Z,100363.35
2022-09-06T20:41:58.497Z,100365.59
2022-09-06T20:44:28.988Z,100362.95
2022-09-06T20:47:00.709Z,100360.64
2022-09-06T20:49:37.210Z,100360.64
2022-09-06T20:52:03.971Z,100356.04
2022-09-06T20:54:32.444Z,100356.59
2022-09-06T20:56:59.218Z,100349.84
2022-09-06T20:59:48.925Z,100347.27
2022-09-06T21:02:57.465Z,100348.41
2022-09-06T21:05:30.661Z,100347.48
2022-09-06T21:08:04.422Z,100345.73
2022-09-06T21:10:31.379Z,100346.71
2022-09-06T21:12:58.454Z,100348.00
2022-09-06T21:15:25.222Z,100351.20
2022-09-06T21:18:04.925Z,100352.84
2022-09-06T21:20:31.998Z,100352.51
2022-09-06T21:23:13.960Z,100355.80
2022-09-06T21:25:54.097Z,100354.61
2022-09-06T21:28:34.063Z,100349.02
2022-09-06T21:31:04.243Z,100347.69
2022-09-06T21:36:53.082Z,100346.10
2022-09-06T21:39:20.005Z,100341.94
2022-09-06T21:41:49.221Z,100339.80
2022-09-06T21:44:15.820Z,100336.60
2022-09-06T21:47:26.867Z,100334.53
2022-09-06T21:50:05.501Z,100336.98
2022-09-06T21:52:32.353Z,100337.15
2022-09-06T21:54:59.182Z,100338.17
2022-09-06T21:57:27.362Z,100337.56
2022-09-06T21:59:57.855Z,100334.47
2022-09-06T22:02:26.833Z,100332.80
2022-09-06T22:04:53.554Z,100330.90
2022-09-06T22:07:22.688Z,100325.11
2022-09-06T22:09:49.693Z,100324.31
2022-09-06T22:12:16.512Z,100320.02
2022-09-06T22:14:43.834Z,100318.27
2022-09-06T22:17:10.493Z,100319.88
2022-09-06T22:19:44.594Z,100325.73
2022-09-06T22:22:14.997Z,100325.48
2022-09-06T22:24:46.599Z,100325.62
2022-09-06T22:27:22.349Z,100326.52
2022-09-06T22:29:50.279Z,100324.51
2022-09-06T22:32:17.063Z,100326.11
2022-09-06T22:34:43.924Z,100321.88
2022-09-06T22:37:10.677Z,100321.44
2022-09-06T22:39:37.494Z,100322.77
2022-09-06T22:42:07.914Z,100318.59
2022-09-06T22:44:35.041Z,100319.19
2022-09-06T22:47:07.862Z,100320.10
2022-09-06T22:49:35.180Z,100318.83
2022-09-06T22:52:05.310Z,100313.73
2022-09-06T22:54:53.323Z,100309.86
2022-09-06T22:57:20.065Z,100308.67
2022-09-06T22:59:56.759Z,100301.35
2022-09-06T23:02:23.728Z,100300.95
2022-09-06T23:04:50.924Z,100295.75
2022-09-06T23:07:17.661Z,100295.83
2022-09-06T23:09:44.713Z,100297.59
2022-09-06T23:12:11.890Z,100300.39
2022-09-06T23:14:38.608Z,100303.85
2022-09-06T23:17:09.901Z,100310.54
2022-09-06T23:19:36.893Z,100312.40
2022-09-06T23:22:11.222Z,100322.52
2022-09-06T23:24:38.432Z,100342.88
2022-09-06T23:27:05.337Z,100392.02
2022-09-06T23:29:32.112Z,100414.34
2022-09-06T23:31:58.546Z,100388.80
2022-09-06T23:34:25.126Z,100385.42
2022-09-06T23:36:52.672Z,100384.94
2022-09-06T23:39:19.179Z,100378.20
2022-09-06T23:41:45.814Z,100376.32
2022-09-06T23:44:15.777Z,100364.44
2022-09-06T23:46:45.525Z,100359.81
2022-09-06T23:49:17.869Z,100362.11
2022-09-06T23:51:52.416Z,100359.49
2022-09-06T23:54:19.753Z,100352.17
2022-09-06T23:56:46.809Z,100345.80
2022-09-06T23:59:16.864Z,100344.47
